sensor_id;sensor_type;location;lat;lon;timestamp;P1;durP1;ratioP1;P2;durP2;ratioP2
64615;SDS011;51027;42.162;24.754;2023-03-14T00:01:11;19.15;;;7.05;;
64615;SDS011;51027;42.162;24.754;2023-03-14T00:03:39;19.52;;;7.10;;
64615;SDS011;51027;42.162;24.754;2023-03-14T00:06:05;16.00;;;6.05;;
64615;SDS011;51027;42.162;24.754;2023-03-14T00:08:31;17.17;;;6.63;;
64615;SDS011;51027;42.162;24.754;2023-03-14T00:10:57;16.52;;;5.43;;
64615;SDS011;51027;42.162;24.754;2023-03-14T00:13:23;17.23;;;5.93;;
64615;SDS011;51027;42.162;24.754;2023-03-14T00:15:49;16.95;;;5.50;;
64615;SDS011;51027;42.162;24.754;2023-03-14T00:18:14;15.95;;;5.10;;
64615;SDS011;51027;42.162;24.754;2023-03-14T00:20:40;17.70;;;5.18;;
64615;SDS011;51027;42.162;24.754;2023-03-14T00:23:06;14.70;;;5.15;;
64615;SDS011;51027;42.162;24.754;2023-03-14T00:25:31;18.15;;;5.15;;
64615;SDS011;51027;42.162;24.754;2023-03-14T00:27:56;16.83;;;5.75;;
64615;SDS011;51027;42.162;24.754;2023-03-14T00:30:22;16.67;;;5.35;;
64615;SDS011;51027;42.162;24.754;2023-03-14T00:32:47;15.05;;;4.75;;
64615;SDS011;51027;42.162;24.754;2023-03-14T00:35:13;15.48;;;5.50;;
64615;SDS011;51027;42.162;24.754;2023-03-14T00:37:38;16.45;;;5.45;;
64615;SDS011;51027;42.162;24.754;2023-03-14T00:40:04;14.07;;;5.03;;
64615;SDS011;51027;42.162;24.754;2023-03-14T00:42:32;17.27;;;5.32;;
64615;SDS011;51027;42.162;24.754;2023-03-14T00:44:58;13.60;;;5.38;;
64615;SDS011;51027;42.162;24.754;2023-03-14T00:47:23;15.18;;;5.65;;
64615;SDS011;51027;42.162;24.754;2023-03-14T00:49:48;15.85;;;5.28;;
64615;SDS011;51027;42.162;24.754;2023-03-14T00:52:14;17.50;;;6.07;;
64615;SDS011;51027;42.162;24.754;2023-03-14T00:54:40;16.98;;;5.35;;
64615;SDS011;51027;42.162;24.754;2023-03-14T00:57:05;14.80;;;5.32;;
64615;SDS011;51027;42.162;24.754;2023-03-14T00:59:31;17.23;;;5.30;;
64615;SDS011;51027;42.162;24.754;2023-03-14T01:01:56;14.40;;;4.72;;
64615;SDS011;51027;42.162;24.754;2023-03-14T01:04:22;15.65;;;5.07;;
64615;SDS011;51027;42.162;24.754;2023-03-14T01:06:47;17.27;;;5.63;;
64615;SDS011;51027;42.162;24.754;2023-03-14T01:09:13;16.95;;;5.82;;
64615;SDS011;51027;42.162;24.754;2023-03-14T01:11:39;19.67;;;5.72;;
64615;SDS011;51027;42.162;24.754;2023-03-14T01:14:04;16.73;;;6.15;;
64615;SDS011;51027;42.162;24.754;2023-03-14T01:16:31;16.75;;;6.50;;
64615;SDS011;51027;42.162;24.754;2023-03-14T01:18:58;17.75;;;6.82;;
64615;SDS011;51027;42.162;24.754;2023-03-14T01:21:24;16.60;;;6.30;;
64615;SDS011;51027;42.162;24.754;2023-03-14T01:23:53;18.77;;;6.90;;
64615;SDS011;51027;42.162;24.754;2023-03-14T01:26:20;18.00;;;6.20;;
64615;SDS011;51027;42.162;24.754;2023-03-14T01:28:48;20.08;;;7.20;;
64615;SDS011;51027;42.162;24.754;2023-03-14T01:31:14;17.30;;;6.38;;
64615;SDS011;51027;42.162;24.754;2023-03-14T01:33:41;15.02;;;5.75;;
64615;SDS011;51027;42.162;24.754;2023-03-14T01:36:07;21.30;;;7.75;;
64615;SDS011;51027;42.162;24.754;2023-03-14T01:38:34;17.85;;;6.95;;
64615;SDS011;51027;42.162;24.754;2023-03-14T01:41:00;17.98;;;7.22;;
64615;SDS011;51027;42.162;24.754;2023-03-14T01:43:26;19.25;;;7.95;;
64615;SDS011;51027;42.162;24.754;2023-03-14T01:46:06;20.40;;;7.95;;
64615;SDS011;51027;42.162;24.754;2023-03-14T01:54:40;20.50;;;7.80;;
64615;SDS011;51027;42.162;24.754;2023-03-14T01:56:57;17.95;;;7.22;;
64615;SDS011;51027;42.162;24.754;2023-03-14T01:59:29;19.30;;;7.30;;
64615;SDS011;51027;42.162;24.754;2023-03-14T02:01:56;19.63;;;7.88;;
64615;SDS011;51027;42.162;24.754;2023-03-14T02:04:22;17.92;;;7.53;;
64615;SDS011;51027;42.162;24.754;2023-03-14T02:06:50;19.25;;;7.45;;
64615;SDS011;51027;42.162;24.754;2023-03-14T02:09:20;17.70;;;7.80;;
64615;SDS011;51027;42.162;24.754;2023-03-14T02:11:46;20.13;;;8.40;;
64615;SDS011;51027;42.162;24.754;2023-03-14T02:14:14;19.95;;;7.63;;
64615;SDS011;51027;42.162;24.754;2023-03-14T02:16:46;21.15;;;7.68;;
64615;SDS011;51027;42.162;24.754;2023-03-14T02:19:11;20.30;;;7.72;;
64615;SDS011;51027;42.162;24.754;2023-03-14T02:21:46;19.73;;;7.88;;
64615;SDS011;51027;42.162;24.754;2023-03-14T02:24:23;20.52;;;8.10;;
64615;SDS011;51027;42.162;24.754;2023-03-14T02:27:10;21.88;;;7.75;;
64615;SDS011;51027;42.162;24.754;2023-03-14T02:29:45;21.38;;;7.32;;
64615;SDS011;51027;42.162;24.754;2023-03-14T02:32:22;17.70;;;7.47;;
64615;SDS011;51027;42.162;24.754;2023-03-14T02:34:52;20.70;;;8.23;;
64615;SDS011;51027;42.162;24.754;2023-03-14T02:37:21;19.52;;;8.15;;
64615;SDS011;51027;42.162;24.754;2023-03-14T02:39:51;19.23;;;7.55;;
64615;SDS011;51027;42.162;24.754;2023-03-14T02:42:16;20.13;;;7.65;;
64615;SDS011;51027;42.162;24.754;2023-03-14T02:45:25;19.85;;;7.88;;
64615;SDS011;51027;42.162;24.754;2023-03-14T02:47:30;20.45;;;8.30;;
64615;SDS011;51027;42.162;24.754;2023-03-14T02:49:59;17.98;;;7.57;;
64615;SDS011;51027;42.162;24.754;2023-03-14T02:52:28;20.80;;;8.70;;
64615;SDS011;51027;42.162;24.754;2023-03-14T02:54:53;19.70;;;8.55;;
64615;SDS011;51027;42.162;24.754;2023-03-14T02:57:18;20.17;;;8.90;;
64615;SDS011;51027;42.162;24.754;2023-03-14T02:59:44;22.40;;;9.95;;
64615;SDS011;51027;42.162;24.754;2023-03-14T03:02:09;22.92;;;9.43;;
64615;SDS011;51027;42.162;24.754;2023-03-14T03:04:35;24.42;;;9.63;;
64615;SDS011;51027;42.162;24.754;2023-03-14T03:07:00;22.45;;;9.15;;
64615;SDS011;51027;42.162;24.754;2023-03-14T03:09:25;21.17;;;9.57;;
64615;SDS011;51027;42.162;24.754;2023-03-14T03:11:52;25.23;;;9.60;;
64615;SDS011;51027;42.162;24.754;2023-03-14T03:14:18;27.98;;;9.73;;
64615;SDS011;51027;42.162;24.754;2023-03-14T03:16:43;23.02;;;10.70;;
64615;SDS011;51027;42.162;24.754;2023-03-14T03:19:08;23.08;;;9.07;;
64615;SDS011;51027;42.162;24.754;2023-03-14T03:21:34;21.98;;;8.70;;
64615;SDS011;51027;42.162;24.754;2023-03-14T03:24:00;23.40;;;9.45;;
64615;SDS011;51027;42.162;24.754;2023-03-14T03:26:25;20.05;;;7.93;;
64615;SDS011;51027;42.162;24.754;2023-03-14T03:28:51;22.05;;;8.80;;
64615;SDS011;51027;42.162;24.754;2023-03-14T03:31:16;21.63;;;8.45;;
64615;SDS011;51027;42.162;24.754;2023-03-14T03:33:42;23.55;;;8.18;;
64615;SDS011;51027;42.162;24.754;2023-03-14T03:36:08;21.20;;;8.35;;
64615;SDS011;51027;42.162;24.754;2023-03-14T03:38:34;23.30;;;8.23;;
64615;SDS011;51027;42.162;24.754;2023-03-14T03:41:02;20.90;;;8.80;;
64615;SDS011;51027;42.162;24.754;2023-03-14T03:43:29;20.17;;;8.27;;
64615;SDS011;51027;42.162;24.754;2023-03-14T03:45:54;19.90;;;8.30;;
64615;SDS011;51027;42.162;24.754;2023-03-14T03:48:20;22.38;;;8.38;;
64615;SDS011;51027;42.162;24.754;2023-03-14T03:50:46;23.73;;;8.45;;
64615;SDS011;51027;42.162;24.754;2023-03-14T03:53:12;24.02;;;9.52;;
64615;SDS011;51027;42.162;24.754;2023-03-14T03:55:40;20.58;;;8.90;;
64615;SDS011;51027;42.162;24.754;2023-03-14T03:58:07;21.92;;;8.77;;
64615;SDS011;51027;42.162;24.754;2023-03-14T04:00:33;20.38;;;8.85;;
64615;SDS011;51027;42.162;24.754;2023-03-14T04:02:58;22.60;;;9.10;;
64615;SDS011;51027;42.162;24.754;2023-03-14T04:05:24;26.00;;;8.90;;
64615;SDS011;51027;42.162;24.754;2023-03-14T04:07:50;22.25;;;8.88;;
64615;SDS011;51027;42.162;24.754;2023-03-14T04:10:15;22.50;;;10.52;;
64615;SDS011;51027;42.162;24.754;2023-03-14T04:12:40;21.30;;;9.00;;
64615;SDS011;51027;42.162;24.754;2023-03-14T04:15:06;22.52;;;10.02;;
64615;SDS011;51027;42.162;24.754;2023-03-14T04:17:32;22.65;;;9.55;;
64615;SDS011;51027;42.162;24.754;2023-03-14T04:19:58;24.05;;;9.60;;
64615;SDS011;51027;42.162;24.754;2023-03-14T04:22:23;20.77;;;8.55;;
64615;SDS011;51027;42.162;24.754;2023-03-14T04:24:48;23.00;;;9.68;;
64615;SDS011;51027;42.162;24.754;2023-03-14T04:27:14;21.02;;;9.35;;
64615;SDS011;51027;42.162;24.754;2023-03-14T04:29:40;24.67;;;9.90;;
64615;SDS011;51027;42.162;24.754;2023-03-14T04:32:05;25.60;;;11.43;;
64615;SDS011;51027;42.162;24.754;2023-03-14T04:34:31;26.63;;;10.35;;
64615;SDS011;51027;42.162;24.754;2023-03-14T04:36:56;30.38;;;13.88;;
64615;SDS011;51027;42.162;24.754;2023-03-14T04:39:22;31.95;;;13.55;;
64615;SDS011;51027;42.162;24.754;2023-03-14T04:41:47;29.60;;;13.32;;
64615;SDS011;51027;42.162;24.754;2023-03-14T04:44:12;30.85;;;13.45;;
64615;SDS011;51027;42.162;24.754;2023-03-14T04:46:38;30.58;;;14.52;;
64615;SDS011;51027;42.162;24.754;2023-03-14T04:49:03;32.78;;;11.70;;
64615;SDS011;51027;42.162;24.754;2023-03-14T04:51:29;33.80;;;14.05;;
64615;SDS011;51027;42.162;24.754;2023-03-14T04:53:54;28.88;;;12.80;;
64615;SDS011;51027;42.162;24.754;2023-03-14T04:56:20;27.50;;;13.27;;
64615;SDS011;51027;42.162;24.754;2023-03-14T04:58:45;29.58;;;12.85;;
64615;SDS011;51027;42.162;24.754;2023-03-14T05:01:11;29.85;;;12.32;;
64615;SDS011;51027;42.162;24.754;2023-03-14T05:03:36;29.63;;;12.18;;
64615;SDS011;51027;42.162;24.754;2023-03-14T05:06:03;29.98;;;12.40;;
64615;SDS011;51027;42.162;24.754;2023-03-14T05:08:29;23.33;;;9.70;;
64615;SDS011;51027;42.162;24.754;2023-03-14T05:10:55;26.30;;;9.85;;
64615;SDS011;51027;42.162;24.754;2023-03-14T05:13:21;25.33;;;10.27;;
64615;SDS011;51027;42.162;24.754;2023-03-14T05:15:47;25.85;;;11.02;;
64615;SDS011;51027;42.162;24.754;2023-03-14T05:18:13;27.30;;;10.88;;
64615;SDS011;51027;42.162;24.754;2023-03-14T05:20:39;27.15;;;10.90;;
64615;SDS011;51027;42.162;24.754;2023-03-14T05:23:04;24.08;;;10.98;;
64615;SDS011;51027;42.162;24.754;2023-03-14T05:25:29;26.85;;;10.98;;
64615;SDS011;51027;42.162;24.754;2023-03-14T05:27:55;28.42;;;10.68;;
64615;SDS011;51027;42.162;24.754;2023-03-14T05:30:20;26.02;;;9.35;;
64615;SDS011;51027;42.162;24.754;2023-03-14T05:32:46;21.75;;;8.88;;
64615;SDS011;51027;42.162;24.754;2023-03-14T05:35:12;21.15;;;8.13;;
64615;SDS011;51027;42.162;24.754;2023-03-14T05:37:37;19.73;;;8.07;;
64615;SDS011;51027;42.162;24.754;2023-03-14T05:40:03;21.65;;;8.00;;
64615;SDS011;51027;42.162;24.754;2023-03-14T05:42:31;21.17;;;7.82;;
64615;SDS011;51027;42.162;24.754;2023-03-14T05:44:57;18.02;;;7.75;;
64615;SDS011;51027;42.162;24.754;2023-03-14T05:47:22;19.67;;;7.53;;
64615;SDS011;51027;42.162;24.754;2023-03-14T05:49:48;19.67;;;7.05;;
64615;SDS011;51027;42.162;24.754;2023-03-14T05:52:14;21.65;;;6.72;;
64615;SDS011;51027;42.162;24.754;2023-03-14T05:55:32;20.30;;;7.53;;
64615;SDS011;51027;42.162;24.754;2023-03-14T05:57:57;18.10;;;7.13;;
64615;SDS011;51027;42.162;24.754;2023-03-14T06:00:23;17.48;;;7.25;;
64615;SDS011;51027;42.162;24.754;2023-03-14T06:02:48;18.88;;;7.60;;
64615;SDS011;51027;42.162;24.754;2023-03-14T06:05:14;24.42;;;8.63;;
64615;SDS011;51027;42.162;24.754;2023-03-14T06:07:39;19.15;;;8.55;;
64615;SDS011;51027;42.162;24.754;2023-03-14T06:10:05;25.08;;;9.55;;
64615;SDS011;51027;42.162;24.754;2023-03-14T06:12:31;20.33;;;8.27;;
64615;SDS011;51027;42.162;24.754;2023-03-14T06:14:56;24.35;;;9.63;;
64615;SDS011;51027;42.162;24.754;2023-03-14T06:17:22;23.52;;;9.57;;
64615;SDS011;51027;42.162;24.754;2023-03-14T06:19:47;23.85;;;9.32;;
64615;SDS011;51027;42.162;24.754;2023-03-14T06:22:13;22.65;;;9.20;;
64615;SDS011;51027;42.162;24.754;2023-03-14T06:24:38;24.27;;;9.57;;
64615;SDS011;51027;42.162;24.754;2023-03-14T06:27:04;26.20;;;10.43;;
64615;SDS011;51027;42.162;24.754;2023-03-14T06:29:29;24.90;;;10.60;;
64615;SDS011;51027;42.162;24.754;2023-03-14T06:31:55;24.63;;;9.90;;
64615;SDS011;51027;42.162;24.754;2023-03-14T06:34:20;23.88;;;10.05;;
64615;SDS011;51027;42.162;24.754;2023-03-14T06:36:46;22.60;;;9.88;;
64615;SDS011;51027;42.162;24.754;2023-03-14T06:39:12;22.83;;;10.68;;
64615;SDS011;51027;42.162;24.754;2023-03-14T06:41:37;21.75;;;9.63;;
64615;SDS011;51027;42.162;24.754;2023-03-14T06:44:03;23.70;;;10.52;;
64615;SDS011;51027;42.162;24.754;2023-03-14T06:46:28;21.30;;;10.05;;
64615;SDS011;51027;42.162;24.754;2023-03-14T06:48:54;24.20;;;9.70;;
64615;SDS011;51027;42.162;24.754;2023-03-14T06:51:19;23.90;;;10.10;;
64615;SDS011;51027;42.162;24.754;2023-03-14T06:53:45;23.55;;;9.68;;
64615;SDS011;51027;42.162;24.754;2023-03-14T06:56:10;25.77;;;10.68;;
64615;SDS011;51027;42.162;24.754;2023-03-14T06:58:35;22.77;;;9.68;;
64615;SDS011;51027;42.162;24.754;2023-03-14T07:01:01;22.67;;;9.48;;
64615;SDS011;51027;42.162;24.754;2023-03-14T07:03:26;21.17;;;8.18;;
64615;SDS011;51027;42.162;24.754;2023-03-14T07:05:52;21.88;;;8.85;;
64615;SDS011;51027;42.162;24.754;2023-03-14T07:08:18;21.30;;;8.93;;
64615;SDS011;51027;42.162;24.754;2023-03-14T07:10:43;19.83;;;8.55;;
64615;SDS011;51027;42.162;24.754;2023-03-14T07:13:08;24.23;;;10.93;;
64615;SDS011;51027;42.162;24.754;2023-03-14T07:15:34;24.42;;;8.13;;
64615;SDS011;51027;42.162;24.754;2023-03-14T07:17:59;22.75;;;8.10;;
64615;SDS011;51027;42.162;24.754;2023-03-14T07:20:25;22.27;;;8.65;;
64615;SDS011;51027;42.162;24.754;2023-03-14T07:22:50;20.55;;;8.65;;
64615;SDS011;51027;42.162;24.754;2023-03-14T07:25:18;23.05;;;9.07;;
64615;SDS011;51027;42.162;24.754;2023-03-14T07:27:44;23.48;;;9.15;;
64615;SDS011;51027;42.162;24.754;2023-03-14T07:30:10;22.65;;;8.98;;
64615;SDS011;51027;42.162;24.754;2023-03-14T07:32:36;23.35;;;9.07;;
64615;SDS011;51027;42.162;24.754;2023-03-14T07:35:02;24.95;;;10.20;;
64615;SDS011;51027;42.162;24.754;2023-03-14T07:37:27;20.83;;;10.02;;
64615;SDS011;51027;42.162;24.754;2023-03-14T07:39:53;24.25;;;12.15;;
64615;SDS011;51027;42.162;24.754;2023-03-14T07:42:18;23.98;;;10.65;;
64615;SDS011;51027;42.162;24.754;2023-03-14T07:44:43;23.52;;;10.27;;
64615;SDS011;51027;42.162;24.754;2023-03-14T07:47:09;26.08;;;10.55;;
64615;SDS011;51027;42.162;24.754;2023-03-14T07:49:34;24.08;;;11.63;;
64615;SDS011;51027;42.162;24.754;2023-03-14T07:52:00;23.27;;;10.02;;
64615;SDS011;51027;42.162;24.754;2023-03-14T07:54:25;21.98;;;8.60;;
64615;SDS011;51027;42.162;24.754;2023-03-14T07:56:51;25.85;;;9.60;;
64615;SDS011;51027;42.162;24.754;2023-03-14T07:59:17;20.08;;;8.95;;
64615;SDS011;51027;42.162;24.754;2023-03-14T08:01:43;21.48;;;9.23;;
64615;SDS011;51027;42.162;24.754;2023-03-14T08:04:08;25.95;;;10.98;;
64615;SDS011;51027;42.162;24.754;2023-03-14T08:06:35;22.92;;;9.73;;
64615;SDS011;51027;42.162;24.754;2023-03-14T08:09:01;28.02;;;10.93;;
64615;SDS011;51027;42.162;24.754;2023-03-14T08:11:26;23.17;;;9.20;;
64615;SDS011;51027;42.162;24.754;2023-03-14T08:13:52;19.60;;;8.32;;
64615;SDS011;51027;42.162;24.754;2023-03-14T08:16:17;21.23;;;8.43;;
64615;SDS011;51027;42.162;24.754;2023-03-14T08:18:43;20.10;;;8.60;;
64615;SDS011;51027;42.162;24.754;2023-03-14T08:21:09;21.75;;;9.30;;
64615;SDS011;51027;42.162;24.754;2023-03-14T08:23:34;21.88;;;9.40;;
64615;SDS011;51027;42.162;24.754;2023-03-14T08:26:00;21.70;;;9.38;;
64615;SDS011;51027;42.162;24.754;2023-03-14T08:28:25;22.02;;;8.85;;
64615;SDS011;51027;42.162;24.754;2023-03-14T08:30:55;21.27;;;10.02;;
64615;SDS011;51027;42.162;24.754;2023-03-14T08:33:22;20.95;;;8.90;;
64615;SDS011;51027;42.162;24.754;2023-03-14T08:35:48;20.95;;;9.80;;
64615;SDS011;51027;42.162;24.754;2023-03-14T08:38:17;20.35;;;9.27;;
64615;SDS011;51027;42.162;24.754;2023-03-14T08:40:42;22.25;;;8.48;;
64615;SDS011;51027;42.162;24.754;2023-03-14T08:43:08;21.80;;;9.02;;
64615;SDS011;51027;42.162;24.754;2023-03-14T08:45:33;22.00;;;9.95;;
64615;SDS011;51027;42.162;24.754;2023-03-14T08:47:59;18.90;;;8.05;;
64615;SDS011;51027;42.162;24.754;2023-03-14T08:50:24;23.00;;;9.27;;
64615;SDS011;51027;42.162;24.754;2023-03-14T08:52:49;20.40;;;8.95;;
64615;SDS011;51027;42.162;24.754;2023-03-14T08:55:15;20.65;;;9.00;;
64615;SDS011;51027;42.162;24.754;2023-03-14T08:57:40;23.13;;;9.32;;
64615;SDS011;51027;42.162;24.754;2023-03-14T09:00:06;20.38;;;8.05;;
64615;SDS011;51027;42.162;24.754;2023-03-14T09:02:37;54.35;;;49.22;;
64615;SDS011;51027;42.162;24.754;2023-03-14T09:05:03;18.17;;;7.78;;
64615;SDS011;51027;42.162;24.754;2023-03-14T09:07:29;19.08;;;6.90;;
64615;SDS011;51027;42.162;24.754;2023-03-14T09:09:54;15.27;;;6.78;;
64615;SDS011;51027;42.162;24.754;2023-03-14T09:12:20;17.40;;;6.45;;
64615;SDS011;51027;42.162;24.754;2023-03-14T09:14:45;14.90;;;5.35;;
64615;SDS011;51027;42.162;24.754;2023-03-14T09:17:11;18.25;;;6.32;;
64615;SDS011;51027;42.162;24.754;2023-03-14T09:19:36;17.17;;;5.80;;
64615;SDS011;51027;42.162;24.754;2023-03-14T09:22:02;17.23;;;6.18;;
64615;SDS011;51027;42.162;24.754;2023-03-14T09:24:27;14.88;;;6.20;;
64615;SDS011;51027;42.162;24.754;2023-03-14T09:26:54;16.17;;;6.10;;
64615;SDS011;51027;42.162;24.754;2023-03-14T09:29:21;16.88;;;6.30;;
64615;SDS011;51027;42.162;24.754;2023-03-14T09:31:46;15.35;;;5.60;;
64615;SDS011;51027;42.162;24.754;2023-03-14T09:34:11;18.35;;;6.00;;
64615;SDS011;51027;42.162;24.754;2023-03-14T09:36:37;16.15;;;6.03;;
64615;SDS011;51027;42.162;24.754;2023-03-14T09:39:04;14.60;;;5.70;;
64615;SDS011;51027;42.162;24.754;2023-03-14T09:41:33;16.42;;;5.75;;
64615;SDS011;51027;42.162;24.754;2023-03-14T09:44:13;15.77;;;5.80;;
64615;SDS011;51027;42.162;24.754;2023-03-14T09:47:01;14.23;;;5.45;;
64615;SDS011;51027;42.162;24.754;2023-03-14T09:49:32;16.10;;;5.90;;
64615;SDS011;51027;42.162;24.754;2023-03-14T09:52:00;14.30;;;5.63;;
64615;SDS011;51027;42.162;24.754;2023-03-14T09:56:59;15.02;;;5.32;;
64615;SDS011;51027;42.162;24.754;2023-03-14T09:59:25;14.40;;;5.30;;
64615;SDS011;51027;42.162;24.754;2023-03-14T10:01:55;13.63;;;5.22;;
64615;SDS011;51027;42.162;24.754;2023-03-14T10:04:23;14.02;;;4.95;;
64615;SDS011;51027;42.162;24.754;2023-03-14T10:06:49;16.48;;;5.90;;
64615;SDS011;51027;42.162;24.754;2023-03-14T10:09:17;13.63;;;4.85;;
64615;SDS011;51027;42.162;24.754;2023-03-14T10:11:50;14.38;;;5.75;;
64615;SDS011;51027;42.162;24.754;2023-03-14T10:14:28;12.45;;;4.80;;
64615;SDS011;51027;42.162;24.754;2023-03-14T10:16:55;12.93;;;4.65;;
64615;SDS011;51027;42.162;24.754;2023-03-14T10:19:30;13.75;;;4.22;;
64615;SDS011;51027;42.162;24.754;2023-03-14T10:21:55;16.02;;;5.57;;
64615;SDS011;51027;42.162;24.754;2023-03-14T10:27:03;14.52;;;5.30;;
64615;SDS011;51027;42.162;24.754;2023-03-14T10:29:34;11.82;;;4.47;;
64615;SDS011;51027;42.162;24.754;2023-03-14T10:34:34;14.07;;;5.00;;
64615;SDS011;51027;42.162;24.754;2023-03-14T10:39:48;15.68;;;5.18;;
64615;SDS011;51027;42.162;24.754;2023-03-14T10:42:19;13.65;;;5.15;;
64615;SDS011;51027;42.162;24.754;2023-03-14T10:45:22;14.25;;;5.50;;
64615;SDS011;51027;42.162;24.754;2023-03-14T10:47:54;14.13;;;5.40;;
64615;SDS011;51027;42.162;24.754;2023-03-14T10:50:24;14.25;;;5.00;;
64615;SDS011;51027;42.162;24.754;2023-03-14T10:52:54;14.95;;;5.40;;
64615;SDS011;51027;42.162;24.754;2023-03-14T10:55:20;14.02;;;4.95;;
64615;SDS011;51027;42.162;24.754;2023-03-14T10:57:48;14.73;;;5.22;;
64615;SDS011;51027;42.162;24.754;2023-03-14T11:00:20;15.13;;;5.10;;
64615;SDS011;51027;42.162;24.754;2023-03-14T11:07:59;14.93;;;5.07;;
64615;SDS011;51027;42.162;24.754;2023-03-14T11:10:31;13.93;;;4.78;;
64615;SDS011;51027;42.162;24.754;2023-03-14T11:18:07;14.10;;;4.95;;
64615;SDS011;51027;42.162;24.754;2023-03-14T11:23:31;12.00;;;4.00;;
64615;SDS011;51027;42.162;24.754;2023-03-14T11:29:02;13.85;;;4.55;;
64615;SDS011;51027;42.162;24.754;2023-03-14T11:31:42;14.13;;;4.22;;
64615;SDS011;51027;42.162;24.754;2023-03-14T11:39:37;12.43;;;4.43;;
64615;SDS011;51027;42.162;24.754;2023-03-14T11:42:04;13.13;;;4.78;;
64615;SDS011;51027;42.162;24.754;2023-03-14T11:44:37;14.52;;;5.07;;
64615;SDS011;51027;42.162;24.754;2023-03-14T11:52:32;14.38;;;4.50;;
64615;SDS011;51027;42.162;24.754;2023-03-14T11:55:21;12.15;;;4.30;;
64615;SDS011;51027;42.162;24.754;2023-03-14T11:57:51;12.50;;;4.63;;
64615;SDS011;51027;42.162;24.754;2023-03-14T12:00:22;12.00;;;4.63;;
64615;SDS011;51027;42.162;24.754;2023-03-14T12:10:55;17.08;;;5.13;;
64615;SDS011;51027;42.162;24.754;2023-03-14T12:13:27;12.77;;;4.85;;
64615;SDS011;51027;42.162;24.754;2023-03-14T12:15:56;12.93;;;4.32;;
64615;SDS011;51027;42.162;24.754;2023-03-14T12:18:29;13.63;;;4.53;;
64615;SDS011;51027;42.162;24.754;2023-03-14T12:21:03;11.57;;;4.70;;
64615;SDS011;51027;42.162;24.754;2023-03-14T12:23:50;14.10;;;4.78;;
64615;SDS011;51027;42.162;24.754;2023-03-14T12:34:02;17.33;;;6.78;;
64615;SDS011;51027;42.162;24.754;2023-03-14T12:39:43;14.73;;;5.22;;
64615;SDS011;51027;42.162;24.754;2023-03-14T12:45:32;16.42;;;4.88;;
64615;SDS011;51027;42.162;24.754;2023-03-14T12:50:53;13.68;;;4.85;;
64615;SDS011;51027;42.162;24.754;2023-03-14T12:59:36;15.00;;;5.22;;
64615;SDS011;51027;42.162;24.754;2023-03-14T13:04:35;15.05;;;5.28;;
64615;SDS011;51027;42.162;24.754;2023-03-14T13:10:02;12.80;;;4.47;;
64615;SDS011;51027;42.162;24.754;2023-03-14T13:12:38;14.55;;;5.40;;
64615;SDS011;51027;42.162;24.754;2023-03-14T13:15:13;15.88;;;5.45;;
64615;SDS011;51027;42.162;24.754;2023-03-14T13:17:43;13.93;;;5.10;;
64615;SDS011;51027;42.162;24.754;2023-03-14T13:20:52;14.82;;;5.00;;
64615;SDS011;51027;42.162;24.754;2023-03-14T13:23:00;15.45;;;5.28;;
64615;SDS011;51027;42.162;24.754;2023-03-14T13:25:29;14.77;;;5.07;;
64615;SDS011;51027;42.162;24.754;2023-03-14T13:27:56;14.45;;;5.18;;
64615;SDS011;51027;42.162;24.754;2023-03-14T13:30:27;15.52;;;5.75;;
64615;SDS011;51027;42.162;24.754;2023-03-14T13:33:02;15.95;;;5.68;;
64615;SDS011;51027;42.162;24.754;2023-03-14T13:35:30;14.65;;;5.50;;
64615;SDS011;51027;42.162;24.754;2023-03-14T13:38:04;15.05;;;5.57;;
64615;SDS011;51027;42.162;24.754;2023-03-14T13:40:31;16.58;;;5.88;;
64615;SDS011;51027;42.162;24.754;2023-03-14T13:43:02;13.90;;;5.15;;
64615;SDS011;51027;42.162;24.754;2023-03-14T13:45:54;14.20;;;5.43;;
64615;SDS011;51027;42.162;24.754;2023-03-14T13:48:22;14.32;;;4.95;;
64615;SDS011;51027;42.162;24.754;2023-03-14T13:50:54;15.90;;;5.22;;
64615;SDS011;51027;42.162;24.754;2023-03-14T13:53:23;13.70;;;4.85;;
64615;SDS011;51027;42.162;24.754;2023-03-14T13:55:50;13.60;;;4.88;;
64615;SDS011;51027;42.162;24.754;2023-03-14T13:58:23;12.63;;;4.63;;
64615;SDS011;51027;42.162;24.754;2023-03-14T14:01:01;13.88;;;5.25;;
64615;SDS011;51027;42.162;24.754;2023-03-14T14:03:31;13.82;;;5.03;;
64615;SDS011;51027;42.162;24.754;2023-03-14T14:05:59;14.80;;;5.07;;
64615;SDS011;51027;42.162;24.754;2023-03-14T14:08:25;14.85;;;4.50;;
64615;SDS011;51027;42.162;24.754;2023-03-14T14:10:52;13.73;;;4.63;;
64615;SDS011;51027;42.162;24.754;2023-03-14T14:13:22;13.52;;;4.82;;
64615;SDS011;51027;42.162;24.754;2023-03-14T14:15:50;12.52;;;4.63;;
64615;SDS011;51027;42.162;24.754;2023-03-14T14:18:18;15.73;;;5.10;;
64615;SDS011;51027;42.162;24.754;2023-03-14T14:20:47;12.48;;;4.82;;
64615;SDS011;51027;42.162;24.754;2023-03-14T14:23:18;14.45;;;4.65;;
64615;SDS011;51027;42.162;24.754;2023-03-14T14:25:50;15.52;;;4.30;;
64615;SDS011;51027;42.162;24.754;2023-03-14T14:28:17;13.70;;;4.95;;
64615;SDS011;51027;42.162;24.754;2023-03-14T14:33:30;11.95;;;4.43;;
64615;SDS011;51027;42.162;24.754;2023-03-14T14:36:04;13.02;;;4.45;;
64615;SDS011;51027;42.162;24.754;2023-03-14T14:38:37;14.23;;;4.40;;
64615;SDS011;51027;42.162;24.754;2023-03-14T14:41:03;14.65;;;4.60;;
64615;SDS011;51027;42.162;24.754;2023-03-14T14:43:29;14.70;;;4.60;;
64615;SDS011;51027;42.162;24.754;2023-03-14T14:45:58;13.20;;;4.47;;
64615;SDS011;51027;42.162;24.754;2023-03-14T14:48:24;12.75;;;4.47;;
64615;SDS011;51027;42.162;24.754;2023-03-14T14:56:03;12.80;;;4.72;;
64615;SDS011;51027;42.162;24.754;2023-03-14T14:58:35;13.40;;;4.90;;
64615;SDS011;51027;42.162;24.754;2023-03-14T15:03:41;16.58;;;6.57;;
64615;SDS011;51027;42.162;24.754;2023-03-14T15:06:08;16.98;;;9.60;;
64615;SDS011;51027;42.162;24.754;2023-03-14T15:08:37;17.00;;;5.90;;
64615;SDS011;51027;42.162;24.754;2023-03-14T15:11:03;17.17;;;6.15;;
64615;SDS011;51027;42.162;24.754;2023-03-14T15:13:28;15.90;;;6.00;;
64615;SDS011;51027;42.162;24.754;2023-03-14T15:15:53;17.77;;;6.50;;
64615;SDS011;51027;42.162;24.754;2023-03-14T15:18:25;15.88;;;6.22;;
64615;SDS011;51027;42.162;24.754;2023-03-14T15:20:53;17.30;;;7.15;;
64615;SDS011;51027;42.162;24.754;2023-03-14T15:23:19;16.60;;;7.13;;
64615;SDS011;51027;42.162;24.754;2023-03-14T15:25:45;15.18;;;5.75;;
64615;SDS011;51027;42.162;24.754;2023-03-14T15:28:16;18.20;;;6.10;;
64615;SDS011;51027;42.162;24.754;2023-03-14T15:30:45;14.32;;;5.18;;
64615;SDS011;51027;42.162;24.754;2023-03-14T15:33:11;14.02;;;5.60;;
64615;SDS011;51027;42.162;24.754;2023-03-14T15:35:36;14.30;;;5.25;;
64615;SDS011;51027;42.162;24.754;2023-03-14T15:38:02;14.25;;;5.20;;
64615;SDS011;51027;42.162;24.754;2023-03-14T15:40:28;17.05;;;7.32;;
64615;SDS011;51027;42.162;24.754;2023-03-14T15:42:54;17.75;;;6.90;;
64615;SDS011;51027;42.162;24.754;2023-03-14T15:45:19;14.43;;;5.80;;
64615;SDS011;51027;42.162;24.754;2023-03-14T15:47:44;14.77;;;6.28;;
64615;SDS011;51027;42.162;24.754;2023-03-14T15:50:10;16.02;;;5.50;;
64615;SDS011;51027;42.162;24.754;2023-03-14T15:52:36;18.60;;;6.32;;
64615;SDS011;51027;42.162;24.754;2023-03-14T15:55:01;17.20;;;6.05;;